Time;durP1;ratioP1;P1;durP2;ratioP2;P2;SDS_P1;SDS_P2;PMS_P1;PMS_P2;Temp;Humidity;BMP_temperature;BMP_pressure;BME280_temperature;BME280_humidity;BME280_pressure;Samples;Min_cycle;Max_cycle;Signal;HPM_P1;HPM_P2
2023/06/19 00:02:13;;;;;;;11.25;10.05;;;;;;;18.89;73.50;100669.09;5003697;28;20050;-57
2023/06/19 00:04:40;;;;;;;11.25;9.98;;;;;;;18.87;73.70;100663.06;5001286;28;20050;-54
2023/06/19 00:07:07;;;;;;;10.63;9.65;;;;;;;18.86;73.87;100668.53;5008539;28;20100;-55
2023/06/19 00:09:35;;;;;;;10.13;9.02;;;;;;;18.85;74.21;100669.53;5006519;28;20058;-54
2023/06/19 00:12:04;;;;;;;12.95;10.35;;;;;;;18.83;74.49;100674.19;5006514;28;20173;-56
2023/06/19 00:14:31;;;;;;;11.00;9.95;;;;;;;18.81;74.38;100671.63;5008933;28;20141;-51
2023/06/19 00:17:00;;;;;;;11.05;9.95;;;;;;;18.80;74.96;100674.44;4989478;28;20053;-55
2023/06/19 00:19:28;;;;;;;10.45;9.43;;;;;;;18.79;74.61;100670.94;5004014;28;20136;-57
2023/06/19 00:21:57;;;;;;;10.18;9.18;;;;;;;18.80;74.62;100664.63;5004032;28;20519;-52
2023/06/19 00:24:24;;;;;;;10.35;9.35;;;;;;;18.79;74.56;100662.94;5003267;28;20073;-55
2023/06/19 00:26:51;;;;;;;11.15;10.00;;;;;;;18.80;74.74;100669.94;5006996;28;20069;-60
2023/06/19 00:29:19;;;;;;;10.60;9.57;;;;;;;18.80;74.60;100677.13;5003196;28;20050;-54
2023/06/19 00:31:46;;;;;;;11.60;9.70;;;;;;;18.79;74.55;100678.09;4987662;28;20148;-53
2023/06/19 00:34:13;;;;;;;10.02;9.02;;;;;;;18.79;74.78;100676.28;5009563;28;20149;-53
2023/06/19 00:36:40;;;;;;;10.75;9.70;;;;;;;18.79;74.86;100678.09;5007074;28;20054;-54
2023/06/19 00:39:08;;;;;;;13.45;10.00;;;;;;;18.78;75.95;100677.28;4990495;28;20138;-52
2023/06/19 00:41:35;;;;;;;10.82;9.55;;;;;;;18.76;76.20;100678.38;5006057;28;20502;-50
2023/06/19 00:44:03;;;;;;;11.10;9.73;;;;;;;18.77;75.85;100662.22;5001258;28;20057;-56
2023/06/19 00:46:31;;;;;;;14.52;10.95;;;;;;;18.77;76.11;100667.56;5001738;28;20684;-52
2023/06/19 00:48:58;;;;;;;10.05;9.07;;;;;;;18.76;75.83;100671.22;4988317;28;20069;-55
2023/06/19 00:51:25;;;;;;;11.25;10.15;;;;;;;18.77;75.86;100669.38;5007110;28;20545;-53
2023/06/19 00:53:53;;;;;;;12.23;10.30;;;;;;;18.78;75.78;100673.72;4984574;28;20049;-52
2023/06/19 00:56:20;;;;;;;10.52;9.52;;;;;;;18.78;76.23;100673.72;5004067;28;20156;-56
2023/06/19 00:58:47;;;;;;;11.93;10.38;;;;;;;18.75;75.97;100666.03;5006239;28;20072;-54
2023/06/19 01:01:15;;;;;;;12.32;11.07;;;;;;;18.75;76.13;100674.03;4984440;28;20575;-55
2023/06/19 01:03:42;;;;;;;10.98;9.88;;;;;;;18.75;75.99;100674.03;5008070;28;20125;-60
2023/06/19 01:06:21;;;;;;;11.60;9.70;;;;;;;18.73;76.25;100663.50;5004056;28;20088;-57
2023/06/19 01:09:04;;;;;;;11.80;10.52;;;;;;;18.71;76.07;100662.81;4971843;28;20050;-58
2023/06/19 01:11:39;;;;;;;11.60;10.55;;;;;;;18.67;76.36;100670.22;4999550;28;20089;-57
2023/06/19 01:14:09;;;;;;;12.45;11.23;;;;;;;18.65;76.45;100666.03;4982093;28;20053;-58
2023/06/19 01:16:37;;;;;;;12.50;10.75;;;;;;;18.62;76.54;100660.97;4973934;28;20113;-58
2023/06/19 01:19:05;;;;;;;12.07;10.82;;;;;;;18.57;77.16;100661.38;5004574;28;20136;-59
2023/06/19 01:21:33;;;;;;;12.57;10.40;;;;;;;18.53;77.17;100651.97;4988802;28;20053;-55
2023/06/19 01:24:00;;;;;;;12.30;10.65;;;;;;;18.50;77.58;100656.75;4965210;28;20084;-56
2023/06/19 01:26:28;;;;;;;11.30;10.20;;;;;;;18.46;77.26;100653.50;5003577;28;20139;-57
2023/06/19 01:28:56;;;;;;;11.80;10.80;;;;;;;18.43;77.37;100653.81;5005351;28;20145;-56
2023/06/19 01:31:45;;;;;;;12.55;11.32;;;;;;;18.41;77.71;100647.75;5017293;28;20145;-55
2023/06/19 01:34:14;;;;;;;11.63;10.63;;;;;;;18.38;77.62;100646.25;4998000;28;20053;-57
2023/06/19 01:36:41;;;;;;;12.07;10.75;;;;;;;18.37;77.87;100641.91;4984735;28;20062;-57
2023/06/19 01:39:10;;;;;;;12.38;11.27;;;;;;;18.36;77.90;100637.53;5012857;28;20073;-56
2023/06/19 01:41:38;;;;;;;12.90;11.13;;;;;;;18.35;78.27;100640.34;5017813;28;20150;-60
2023/06/19 01:44:07;;;;;;;12.18;10.75;;;;;;;18.34;78.16;100644.84;5002839;28;20064;-56
2023/06/19 01:46:34;;;;;;;12.20;11.00;;;;;;;18.34;78.25;100639.50;5001293;28;20060;-56
2023/06/19 01:49:06;;;;;;;12.48;11.27;;;;;;;18.33;78.45;100639.66;5002519;28;20053;-55
2023/06/19 01:51:33;;;;;;;12.45;11.15;;;;;;;18.33;78.78;100637.00;5004169;28;20758;-54
2023/06/19 01:54:01;;;;;;;11.48;10.32;;;;;;;18.33;78.93;100626.31;4990718;28;20069;-55
2023/06/19 01:56:28;;;;;;;12.20;11.00;;;;;;;18.32;79.12;100629.94;5003130;28;20050;-54
2023/06/19 01:58:55;;;;;;;12.40;11.20;;;;;;;18.32;79.18;100624.63;5004797;28;20308;-56
2023/06/19 02:01:22;;;;;;;12.20;11.00;;;;;;;18.31;79.20;100625.59;5002761;28;20421;-57
2023/06/19 02:03:50;;;;;;;14.35;11.10;;;;;;;18.31;79.30;100631.78;5002624;28;20066;-53
2023/06/19 02:06:17;;;;;;;12.35;11.25;;;;;;;18.31;79.18;100625.59;4999532;28;20422;-60
2023/06/19 02:08:44;;;;;;;12.48;11.18;;;;;;;18.32;79.01;100624.63;4999870;28;20050;-56
2023/06/19 02:11:11;;;;;;;13.18;11.93;;;;;;;18.30;79.19;100629.25;4997736;28;20049;-52
2023/06/19 02:13:42;;;;;;;14.85;11.60;;;;;;;18.31;79.30;100620.28;5022297;28;20046;-52
2023/06/19 02:16:09;;;;;;;13.35;11.38;;;;;;;18.30;79.43;100616.78;4984380;28;20062;-52
2023/06/19 02:18:36;;;;;;;13.57;12.13;;;;;;;18.30;79.29;100615.94;5002046;28;20456;-54
2023/06/19 02:21:04;;;;;;;12.30;11.10;;;;;;;18.28;79.30;100610.75;4999400;28;20045;-53
2023/06/19 02:23:31;;;;;;;12.70;11.50;;;;;;;18.28;79.17;100607.22;5002815;28;20153;-55
2023/06/19 02:25:58;;;;;;;13.07;11.50;;;;;;;18.26;79.07;100610.03;5006450;28;20153;-53
2023/06/19 02:28:50;;;;;;;12.23;11.13;;;;;;;18.27;78.93;100606.38;5002973;28;20053;-57
